Time;durP1;ratioP1;P1;durP2;ratioP2;P2;SDS_P1;SDS_P2;PMS_P1;PMS_P2;Temp;Humidity;BMP_temperature;BMP_pressure;BME280_temperature;BME280_humidity;BME280_pressure;Samples;Min_cycle;Max_cycle;Signal;HPM_P1;HPM_P2
2022/10/07 00:00:45;;;;;;;14.18;7.53;;;;;;;7.96;100.00;94152.44;5111465;28;20052;-71
2022/10/07 00:03:11;;;;;;;14.50;7.82;;;;;;;7.97;100.00;94161.69;5106860;28;20055;-71
2022/10/07 00:05:38;;;;;;;16.75;8.50;;;;;;;8.00;100.00;94166.47;5108267;28;20047;-71
2022/10/07 00:08:05;;;;;;;13.85;7.40;;;;;;;8.02;100.00;94167.88;5108175;28;20090;-71
2022/10/07 00:10:31;;;;;;;14.40;7.60;;;;;;;8.04;100.00;94165.16;5101472;28;20048;-71
2022/10/07 00:13:01;;;;;;;12.77;7.43;;;;;;;8.01;100.00;94161.19;5102154;28;20478;-71
2022/10/07 00:15:27;;;;;;;15.93;8.20;;;;;;;8.04;100.00;94160.06;5101218;28;20426;-72
2022/10/07 00:17:54;;;;;;;14.18;8.00;;;;;;;8.02;100.00;94156.88;5101124;28;20048;-72
2022/10/07 00:20:21;;;;;;;17.58;9.23;;;;;;;7.97;100.00;94143.78;5102701;28;20502;-72
2022/10/07 00:22:47;;;;;;;19.35;11.05;;;;;;;7.98;100.00;94155.63;5106730;28;20503;-71
2022/10/07 00:25:14;;;;;;;17.00;8.93;;;;;;;7.99;100.00;94150.34;5111266;28;20052;-71
2022/10/07 00:27:41;;;;;;;13.15;8.00;;;;;;;7.98;100.00;94147.94;5111140;28;20096;-71
2022/10/07 00:30:10;;;;;;;19.08;8.27;;;;;;;7.93;100.00;94152.78;5110926;28;20043;-71
2022/10/07 00:32:37;;;;;;;17.95;8.23;;;;;;;7.92;100.00;94151.97;5111106;28;20059;-71
2022/10/07 00:35:04;;;;;;;19.08;9.90;;;;;;;7.80;100.00;94150.75;5110728;28;20036;-71
2022/10/07 00:37:31;;;;;;;16.85;9.60;;;;;;;7.79;100.00;94146.63;5111129;28;20092;-72
2022/10/07 00:39:58;;;;;;;21.98;12.07;;;;;;;7.74;100.00;94142.78;5110718;28;20487;-71
2022/10/07 00:42:24;;;;;;;26.80;12.18;;;;;;;7.74;100.00;94142.78;5110722;28;20044;-72
2022/10/07 00:44:51;;;;;;;21.88;11.27;;;;;;;7.75;100.00;94138.50;5110576;28;20096;-71
2022/10/07 00:47:24;;;;;;;25.30;11.70;;;;;;;7.75;100.00;94136.75;5110832;28;20104;-71
2022/10/07 00:49:56;;;;;;;24.98;11.40;;;;;;;7.72;100.00;94134.50;5110939;28;20096;-71
2022/10/07 00:52:26;;;;;;;23.60;11.68;;;;;;;7.73;100.00;94128.41;5110642;28;20077;-71
2022/10/07 00:54:55;;;;;;;24.50;12.35;;;;;;;7.70;100.00;94127.97;5110523;28;20043;-71
2022/10/07 00:57:24;;;;;;;18.10;10.35;;;;;;;7.63;100.00;94125.28;5110467;28;20085;-71
2022/10/07 00:59:54;;;;;;;17.60;8.20;;;;;;;7.56;100.00;94124.38;5110055;28;20048;-71
2022/10/07 01:02:23;;;;;;;14.68;8.15;;;;;;;7.47;100.00;94121.06;5110176;28;20093;-71
2022/10/07 01:04:51;;;;;;;15.50;7.95;;;;;;;7.40;100.00;94115.03;5110439;28;20056;-71
2022/10/07 01:07:20;;;;;;;13.40;7.57;;;;;;;7.34;100.00;94117.28;5110115;28;20502;-71
2022/10/07 01:09:49;;;;;;;12.63;7.20;;;;;;;7.38;100.00;94119.50;5110493;28;20043;-71
2022/10/07 01:12:23;;;;;;;11.70;7.15;;;;;;;7.30;100.00;94117.75;5110382;28;20127;-71
2022/10/07 01:15:00;;;;;;;11.77;6.45;;;;;;;7.28;100.00;94112.03;5110364;28;20101;-71
2022/10/07 01:17:33;;;;;;;14.70;6.75;;;;;;;7.25;100.00;94114.91;5110462;28;20472;-71
2022/10/07 01:20:29;;;;;;;15.20;6.78;;;;;;;7.17;100.00;94100.44;5110261;28;20047;-71
2022/10/07 01:23:09;;;;;;;11.07;6.80;;;;;;;7.12;100.00;94108.56;5109806;28;20043;-71
2022/10/07 01:25:54;;;;;;;10.80;6.68;;;;;;;7.15;100.00;94112.56;5110183;28;20044;-71
2022/10/07 01:28:29;;;;;;;10.52;6.20;;;;;;;7.15;100.00;94117.66;5109989;28;20120;-71
2022/10/07 01:30:59;;;;;;;11.02;6.88;;;;;;;7.15;100.00;94102.34;5110040;28;20108;-71
2022/10/07 01:33:32;;;;;;;14.43;6.85;;;;;;;7.07;100.00;94108.28;5110313;28;20055;-71
2022/10/07 01:36:03;;;;;;;13.02;6.72;;;;;;;7.13;100.00;94106.84;5109966;28;20056;-71
2022/10/07 01:38:33;;;;;;;12.07;6.82;;;;;;;7.07;100.00;94095.50;5109708;28;20051;-71
2022/10/07 01:41:04;;;;;;;16.25;6.70;;;;;;;7.16;100.00;94106.47;5109629;28;20061;-71
2022/10/07 01:43:34;;;;;;;12.90;6.95;;;;;;;7.21;100.00;94099.13;5109642;28;20051;-71
2022/10/07 01:46:02;;;;;;;12.77;6.55;;;;;;;7.26;100.00;94101.19;5109547;28;20043;-71
2022/10/07 01:48:31;;;;;;;13.57;6.80;;;;;;;7.16;100.00;94097.06;5109829;28;20471;-71
2022/10/07 01:51:00;;;;;;;13.70;7.10;;;;;;;7.14;100.00;94095.66;5109781;28;20043;-71
2022/10/07 01:53:40;;;;;;;9.73;6.20;;;;;;;7.17;100.00;94096.09;5109444;28;20127;-71
2022/10/07 01:56:23;;;;;;;10.55;6.60;;;;;;;7.18;100.00;94099.47;5109742;28;20039;-71
2022/10/07 01:59:18;;;;;;;13.43;6.63;;;;;;;7.18;100.00;94089.25;5109351;28;20043;-71
2022/10/07 02:01:49;;;;;;;;;;;;;;;7.15;100.00;94087.00;5097899;28;20100;-71
2022/10/07 02:04:36;;;;;;;11.95;6.60;;;;;;;7.17;100.00;94082.53;5109304;28;19984;-71
2022/10/07 02:07:17;;;;;;;14.02;6.07;;;;;;;7.18;100.00;94087.47;5109101;28;20551;-70
2022/10/07 02:09:48;;;;;;;11.38;6.78;;;;;;;7.20;100.00;94092.41;5109026;28;20085;-70
2022/10/07 02:12:21;;;;;;;9.55;6.25;;;;;;;7.13;100.00;94066.72;5108612;28;20043;-70
2022/10/07 02:14:55;;;;;;;11.55;6.35;;;;;;;7.18;100.00;94090.03;5109125;28;20047;-70
2022/10/07 02:17:27;;;;;;;11.73;6.43;;;;;;;7.17;100.00;94098.66;5109302;28;20096;-70
2022/10/07 02:19:56;;;;;;;12.23;5.85;;;;;;;7.15;100.00;94094.69;5109275;28;20052;-70
2022/10/07 02:22:25;;;;;;;10.02;5.93;;;;;;;7.15;100.00;94085.25;5109116;28;20039;-70
2022/10/07 02:24:57;;;;;;;10.50;5.65;;;;;;;7.27;100.00;94087.44;5109347;28;20399;-70
2022/10/07 02:27:30;;;;;;;10.15;5.85;;;;;;;7.38;100.00;94089.63;5109106;28;20036;-70
2022/10/07 02:30:03;;;;;;;9.35;5.82;;;;;;;7.32;100.00;94087.75;5109285;28;20445;-70
2022/10/07 02:32:31;;;;;;;10.25;6.00;;;;;;;7.18;100.00;94094.34;5109465;28;20457;-70
2022/10/07 02:35:02;;;;;;;10.60;5.57;;;;;;;7.15;100.00;94099.78;5109137;28;20112;-70
2022/10/07 02:37:32;;;;;;;10.60;6.80;;;;;;;7.14;100.00;94093.09;5109256;28;20065;-70
2022/10/07 02:39:59;;;;;;;11.63;6.47;;;;;;;7.16;100.00;94086.84;5108824;28;20039;-70
2022/10/07 02:42:31;;;;;;;16.02;7.20;;;;;;;7.18;100.00;94090.03;5109046;28;20036;-70
2022/10/07 02:45:02;;;;;;;9.93;5.70;;;;;;;7.24;100.00;94091.13;5109037;28;20081;-70
2022/10/07 02:47:35;;;;;;;13.88;6.10;;;;;;;7.34;100.00;94089.16;5109056;28;20192;-70
2022/10/07 02:50:07;;;;;;;13.23;6.20;;;;;;;7.35;100.00;94079.72;5108663;28;20081;-71
2022/10/07 02:52:35;;;;;;;13.05;6.70;;;;;;;7.38;100.00;94092.19;5108999;28;20097;-70
2022/10/07 02:55:05;;;;;;;15.48;7.18;;;;;;;7.34;100.00;94089.16;5108915;28;20084;-71
2022/10/07 02:57:38;;;;;;;15.27;8.05;;;;;;;7.39;100.00;94091.22;5109034;28;20093;-70
2022/10/07 03:00:08;;;;;;;9.45;6.45;;;;;;;7.40;100.00;94095.34;5108824;28;20047;-70
2022/10/07 03:02:39;;;;;;;10.18;5.22;;;;;;;7.44;100.00;94099.19;5108205;28;20743;-70
2022/10/07 03:05:08;;;;;;;8.93;4.93;;;;;;;7.47;100.00;94105.72;5108898;28;20134;-70
2022/10/07 03:07:36;;;;;;;7.97;4.93;;;;;;;7.39;100.00;94108.31;5109207;28;20047;-70
2022/10/07 03:10:03;;;;;;;6.20;4.00;;;;;;;7.42;100.00;94095.19;5108516;28;20052;-69
2022/10/07 03:12:29;;;;;;;9.52;5.70;;;;;;;7.29;100.00;94080.41;5108836;28;20462;-69
2022/10/07 03:14:57;;;;;;;6.30;4.50;;;;;;;7.41;100.00;94096.16;5108545;28;20089;-69
2022/10/07 03:17:25;;;;;;;7.28;4.22;;;;;;;7.34;100.00;94101.94;5108663;28;20514;-69
2022/10/07 03:19:51;;;;;;;8.93;4.50;;;;;;;7.39;100.00;94096.31;5108437;28;20048;-69
2022/10/07 03:22:19;;;;;;;7.53;4.78;;;;;;;7.39;100.00;94101.44;5110513;28;20106;-69
2022/10/07 03:24:46;;;;;;;9.57;4.75;;;;;;;7.41;100.00;94088.50;5112750;28;20135;-70
2022/10/07 03:27:12;;;;;;;10.65;4.78;;;;;;;7.47;100.00;94082.72;5112615;28;20043;-70
2022/10/07 03:29:39;;;;;;;12.13;4.75;;;;;;;7.54;100.00;94091.28;5112341;28;20694;-70
2022/10/07 03:32:07;;;;;;;8.27;4.72;;;;;;;7.52;100.00;94079.63;5112542;28;20047;-70
2022/10/07 03:34:36;;;;;;;10.20;4.60;;;;;;;7.60;100.00;94097.50;5112431;28;20044;-70
2022/10/07 03:37:03;;;;;;;8.38;4.53;;;;;;;7.66;100.00;94094.25;5112335;28;20051;-70
2022/10/07 03:39:30;;;;;;;6.88;4.28;;;;;;;7.72;100.00;94098.69;5111987;28;20050;-70
2022/10/07 03:41:56;;;;;;;7.45;4.28;;;;;;;7.80;100.00;94089.38;5111914;28;20043;-70
2022/10/07 03:44:23;;;;;;;8.38;4.25;;;;;;;7.67;100.00;94070.28;5111957;28;20097;-70
2022/10/07 03:46:50;;;;;;;7.15;3.75;;;;;;;7.83;100.00;94094.94;5112154;28;20499;-70
2022/10/07 03:49:18;;;;;;;6.18;4.30;;;;;;;7.87;100.00;94100.53;5126655;27;20100;-70
2022/10/07 03:51:46;;;;;;;7.50;5.57;;;;;;;7.87;100.00;94092.88;5105638;27;20135;-71
2022/10/07 03:54:13;;;;;;;9.75;5.03;;;;;;;7.80;100.00;94086.81;5132572;27;20047;-71
2022/10/07 03:56:40;;;;;;;8.10;5.15;;;;;;;7.89;100.00;94098.59;5132867;27;20096;-71
2022/10/07 03:59:06;;;;;;;10.02;5.70;;;;;;;7.87;100.00;94095.41;5132797;27;20039;-70
2022/10/07 04:01:33;;;;;;;8.00;4.95;;;;;;;7.85;100.00;94102.44;5132600;27;20051;-70
2022/10/07 04:04:00;;;;;;;9.75;5.80;;;;;;;7.75;100.00;94108.59;5132196;27;20402;-70
2022/10/07 04:06:27;;;;;;;8.70;5.50;;;;;;;7.72;100.00;94098.69;5132427;27;20043;-70
2022/10/07 04:08:56;;;;;;;11.68;5.93;;;;;;;7.72;100.00;94108.13;5132387;27;20162;-70
2022/10/07 04:11:23;;;;;;;9.98;5.97;;;;;;;7.65;100.00;94102.91;5132524;27;20441;-70
2022/10/07 04:13:50;;;;;;;10.48;6.50;;;;;;;7.69;100.00;94106.69;5132629;27;20051;-70
2022/10/07 04:16:17;;;;;;;8.45;5.72;;;;;;;7.67;100.00;94107.84;5132395;27;20043;-70
2022/10/07 04:18:43;;;;;;;9.30;5.15;;;;;;;7.59;100.00;94112.03;5132322;27;20047;-70
2022/10/07 04:21:10;;;;;;;5.40;4.25;;;;;;;7.63;100.00;94112.50;5104058;27;20096;-70
2022/10/07 04:23:37;;;;;;;7.55;4.07;;;;;;;7.63;100.00;94112.50;5132418;27;20043;-70
2022/10/07 04:26:09;;;;;;;16.77;8.48;;;;;;;7.58;100.00;94105.34;5132322;27;20104;-70
2022/10/07 04:28:36;;;;;;;9.82;5.70;;;;;;;7.57;100.00;94113.16;5131962;27;20047;-70
2022/10/07 04:31:04;;;;;;;13.10;8.50;;;;;;;7.60;100.00;94107.72;5131945;27;20437;-70
2022/10/07 04:33:31;;;;;;;17.13;14.60;;;;;;;7.61;100.00;94097.34;5131271;27;20100;-71
2022/10/07 04:36:03;;;;;;;9.30;5.50;;;;;;;7.47;100.00;94085.25;5132075;27;20449;-70
2022/10/07 04:38:31;;;;;;;10.88;5.07;;;;;;;7.46;100.00;94088.78;5132112;27;20051;-71
2022/10/07 04:40:58;;;;;;;10.98;5.35;;;;;;;7.31;100.00;94081.81;5132024;27;20058;-71
2022/10/07 04:43:32;;;;;;;12.30;6.03;;;;;;;7.41;100.00;94091.06;5131917;27;20039;-70
2022/10/07 04:46:02;;;;;;;8.65;4.43;;;;;;;7.40;100.00;94090.25;5131576;27;20134;-70
2022/10/07 04:48:29;;;;;;;10.35;4.82;;;;;;;7.43;100.00;94089.13;5131833;27;20043;-70
2022/10/07 04:51:01;;;;;;;10.27;6.00;;;;;;;7.46;100.00;94087.00;5131865;27;20039;-70
2022/10/07 04:53:28;;;;;;;11.00;5.88;;;;;;;7.51;100.00;94089.09;5131497;27;20084;-70
2022/10/07 04:55:55;;;;;;;10.35;5.50;;;;;;;7.58;100.00;94097.66;5131727;27;20043;-70
2022/10/07 04:58:21;;;;;;;8.95;5.00;;;;;;;7.65;100.00;94091.88;5131710;27;20043;-70
2022/10/07 05:00:51;;;;;;;7.63;4.07;;;;;;;7.78;100.00;94101.53;5131431;27;20039;-70
2022/10/07 05:03:19;;;;;;;9.45;3.90;;;;;;;7.84;100.00;94100.88;5131059;27;20460;-70
2022/10/07 05:05:49;;;;;;;14.48;7.45;;;;;;;7.88;100.00;94097.00;5131233;27;20518;-71
2022/10/07 05:08:18;;;;;;;13.80;6.38;;;;;;;7.88;100.00;94090.13;5131044;27;20043;-71
2022/10/07 05:10:45;;;;;;;14.75;6.20;;;;;;;8.05;100.00;94102.78;5131421;27;20051;-71
2022/10/07 05:13:15;;;;;;;14.30;6.72;;;;;;;8.10;100.00;94099.72;5131306;27;20043;-71
2022/10/07 05:15:47;;;;;;;13.90;7.57;;;;;;;8.17;100.00;94100.63;5131222;27;20047;-71
2022/10/07 05:18:16;;;;;;;16.05;6.88;;;;;;;8.20;100.00;94109.72;5131265;27;20408;-71
2022/10/07 05:20:45;;;;;;;11.13;5.57;;;;;;;8.30;100.00;94110.28;5116607;27;20444;-71
2022/10/07 05:23:12;;;;;;;14.05;6.50;;;;;;;8.31;100.00;94116.19;5131180;27;20047;-71
2022/10/07 05:25:38;;;;;;;12.85;6.45;;;;;;;8.36;100.00;94122.41;5131088;27;20099;-71
2022/10/07 05:28:05;;;;;;;10.52;5.32;;;;;;;8.44;100.00;94111.28;5130826;27;20437;-71
2022/10/07 05:30:32;;;;;;;10.60;5.50;;;;;;;8.53;100.00;94117.94;5130950;27;20311;-71
2022/10/07 05:32:59;;;;;;;6.28;3.88;;;;;;;8.72;100.00;94125.31;5130985;27;20051;-71
2022/10/07 05:35:27;;;;;;;14.10;5.05;;;;;;;8.84;100.00;94125.69;5101686;27;20043;-71
2022/10/07 05:38:13;;;;;;;5.85;3.83;;;;;;;9.05;100.00;94124.97;5130900;27;20043;-71
2022/10/07 05:40:39;;;;;;;5.25;3.22;;;;;;;9.22;100.00;94125.59;5130779;27;20519;-71
2022/10/07 05:43:08;;;;;;;3.58;2.75;;;;;;;9.38;100.00;94139.16;5130727;27;20092;-71
2022/10/07 05:45:34;;;;;;;4.47;2.80;;;;;;;9.53;100.00;94134.03;5129723;27;20474;-71
2022/10/07 05:48:01;;;;;;;5.10;3.13;;;;;;;9.75;100.00;94143.38;5130608;27;20047;-71
2022/10/07 05:50:29;;;;;;;5.43;3.45;;;;;;;9.85;100.00;94140.50;5130331;27;20532;-71
2022/10/07 05:52:56;;;;;;;5.88;3.70;;;;;;;9.97;100.00;94138.25;5130348;27;20084;-71
2022/10/07 05:55:23;;;;;;;4.70;2.65;;;;;;;10.19;100.00;94142.59;5130355;27;20082;-71
2022/10/07 05:57:50;;;;;;;5.75;2.60;;;;;;;10.29;100.00;94153.34;5130695;27;20111;-71
2022/10/07 06:00:17;;;;;;;6.32;2.30;;;;;;;10.36;100.00;94155.97;5130320;27;20103;-71
2022/10/07 06:02:44;;;;;;;4.28;2.20;;;;;;;10.51;100.00;94149.00;5130214;27;20566;-71
2022/10/07 06:05:10;;;;;;;4.43;2.25;;;;;;;10.65;100.00;94152.47;5130618;27;20047;-71
2022/10/07 06:07:39;;;;;;;3.88;2.28;;;;;;;10.78;100.00;94158.72;5130188;27;20076;-71
2022/10/07 06:13:08;;;;;;;6.63;2.60;;;;;;;11.05;100.00;94153.72;5130175;27;20054;-71
2022/10/07 06:15:36;;;;;;;4.90;2.58;;;;;;;11.20;100.00;94151.06;5122067;27;20100;-71
2022/10/07 06:18:03;;;;;;;5.90;3.05;;;;;;;11.39;100.00;94153.91;5101758;28;20043;-71
2022/10/07 06:20:30;;;;;;;7.13;3.63;;;;;;;11.50;100.00;94143.84;5114681;27;20055;-71
2022/10/07 06:22:58;;;;;;;4.63;2.35;;;;;;;11.73;100.00;94149.69;5120227;27;20043;-71
2022/10/07 06:25:25;;;;;;;4.32;2.25;;;;;;;11.81;100.00;94144.34;5127463;27;20110;-71
2022/10/07 06:27:53;;;;;;;17.55;8.77;;;;;;;11.90;98.99;94145.78;5128371;28;20558;-71
2022/10/07 06:30:19;;;;;;;6.57;3.10;;;;;;;12.08;100.00;94143.69;5125175;28;20509;-72
2022/10/07 06:32:46;;;;;;;6.40;3.80;;;;;;;12.29;100.00;94147.84;5120280;28;20100;-71
2022/10/07 06:35:13;;;;;;;14.73;7.38;;;;;;;12.37;100.00;94136.56;5129792;28;20047;-71
2022/10/07 06:37:39;;;;;;;6.55;3.22;;;;;;;12.63;97.44;94158.97;5129819;28;20642;-71
2022/10/07 06:40:09;;;;;;;8.38;4.75;;;;;;;12.80;99.98;94156.78;5129888;28;20047;-71
2022/10/07 06:42:35;;;;;;;31.90;15.35;;;;;;;12.95;100.00;94151.41;5129938;28;20104;-72
2022/10/07 06:45:02;;;;;;;14.95;6.40;;;;;;;13.14;100.00;94161.88;5129476;28;20081;-71
2022/10/07 06:47:29;;;;;;;12.88;6.78;;;;;;;13.21;98.27;94143.81;5129857;28;20047;-71
2022/10/07 06:49:56;;;;;;;11.38;6.03;;;;;;;13.43;95.39;94166.78;5130105;28;20062;-71
2022/10/07 06:52:22;;;;;;;6.82;3.60;;;;;;;13.57;97.87;94165.75;5129409;28;20043;-71
2022/10/07 06:54:49;;;;;;;13.85;8.30;;;;;;;13.74;98.06;94160.94;5129569;28;20039;-71
2022/10/07 06:57:17;;;;;;;4.38;3.03;;;;;;;13.89;94.23;94171.00;5131840;27;20047;-71
2022/10/07 06:59:44;;;;;;;6.05;3.40;;;;;;;14.02;96.13;94175.31;5133861;27;20047;-71
2022/10/07 07:02:11;;;;;;;5.10;2.75;;;;;;;13.95;92.78;94161.66;5133285;27;20047;-71
2022/10/07 07:04:38;;;;;;;3.45;1.38;;;;;;;13.79;82.97;94180.19;5133715;27;20054;-72
2022/10/07 07:07:05;;;;;;;3.72;1.30;;;;;;;13.59;82.04;94156.03;5133515;27;20567;-71
2022/10/07 07:09:32;;;;;;;3.17;1.27;;;;;;;13.81;80.56;94178.19;5133340;27;20047;-72
2022/10/07 07:11:59;;;;;;;3.58;1.95;;;;;;;13.86;80.16;94170.63;5133723;27;20100;-72
2022/10/07 07:14:27;;;;;;;3.75;1.33;;;;;;;13.87;80.36;94156.72;5129749;27;20487;-72
2022/10/07 07:16:54;;;;;;;3.35;1.70;;;;;;;14.01;80.78;94175.50;5122932;27;20122;-72
2022/10/07 07:19:21;;;;;;;3.33;1.60;;;;;;;14.09;80.22;94171.91;5128150;27;20096;-72
2022/10/07 07:21:47;;;;;;;3.72;2.13;;;;;;;14.25;85.10;94173.19;5124488;27;20101;-72
2022/10/07 07:24:15;;;;;;;9.13;2.90;;;;;;;14.26;88.74;94159.28;5130022;27;20036;-72
2022/10/07 07:26:41;;;;;;;3.67;2.28;;;;;;;14.35;90.48;94152.06;5122416;27;20051;-72
2022/10/07 07:29:08;;;;;;;5.88;2.67;;;;;;;14.41;89.00;94154.59;5133410;27;20043;-71
2022/10/07 07:31:37;;;;;;;5.18;2.38;;;;;;;14.52;88.18;94137.63;5133395;27;20088;-72
2022/10/07 07:34:06;;;;;;;7.00;2.55;;;;;;;14.71;86.77;94145.41;5132691;27;20538;-71
2022/10/07 07:36:35;;;;;;;3.97;1.88;;;;;;;14.66;83.38;94147.84;5133268;27;20043;-72
2022/10/07 07:39:04;;;;;;;4.25;2.42;;;;;;;14.81;83.86;94150.13;5123527;27;20043;-72
2022/10/07 07:41:33;;;;;;;4.63;1.95;;;;;;;14.93;83.60;94147.66;5132381;27;20499;-71
2022/10/07 07:44:03;;;;;;;8.68;2.90;;;;;;;15.16;84.85;94143.66;5132710;27;20090;-71
2022/10/07 07:46:35;;;;;;;5.05;3.03;;;;;;;15.26;81.87;94141.38;5132773;27;20051;-71
2022/10/07 07:49:03;;;;;;;7.03;2.90;;;;;;;15.33;79.36;94133.53;5132689;27;20134;-71
2022/10/07 07:51:30;;;;;;;8.57;3.80;;;;;;;15.56;80.67;94145.81;5118782;27;20058;-72
2022/10/07 07:53:58;;;;;;;6.80;3.15;;;;;;;15.67;78.42;94149.47;5108877;28;20035;-71
2022/10/07 07:56:27;;;;;;;9.40;3.60;;;;;;;15.74;81.72;94133.84;5091110;28;20044;-71
2022/10/07 07:58:55;;;;;;;10.75;4.97;;;;;;;15.79;76.49;94149.53;5091471;28;20044;-72
2022/10/07 08:01:22;;;;;;;15.07;6.43;;;;;;;15.81;77.68;94149.28;5090699;28;20105;-72
2022/10/07 08:03:49;;;;;;;9.38;4.40;;;;;;;16.06;81.11;94140.66;5097563;28;20082;-72
2022/10/07 08:06:19;;;;;;;10.63;6.10;;;;;;;16.14;79.75;94122.19;5101587;28;20055;-72
2022/10/07 08:08:46;;;;;;;5.50;2.72;;;;;;;16.20;71.09;94149.81;5117126;27;20547;-72
2022/10/07 08:11:15;;;;;;;7.07;3.50;;;;;;;16.37;76.16;94134.41;5111915;27;20574;-71
2022/10/07 08:13:42;;;;;;;8.38;3.72;;;;;;;16.42;73.37;94138.94;5122736;27;20084;-72
2022/10/07 08:16:11;;;;;;;9.27;2.95;;;;;;;16.50;72.70;94140.41;5132248;27;20043;-71
2022/10/07 08:18:38;;;;;;;5.80;2.97;;;;;;;16.53;73.76;94121.81;5121014;27;20044;-71
2022/10/07 08:21:07;;;;;;;4.78;2.40;;;;;;;16.53;74.29;94132.97;5115813;27;20050;-71
2022/10/07 08:23:35;;;;;;;4.60;2.22;;;;;;;16.32;70.61;94121.31;5119482;27;20105;-71
2022/10/07 08:26:03;;;;;;;6.32;2.20;;;;;;;16.38;70.19;94117.84;5127415;27;20478;-71
2022/10/07 08:28:30;;;;;;;3.78;1.83;;;;;;;16.08;70.62;94121.28;5132305;27;20422;-71
2022/10/07 08:31:03;;;;;;;3.78;2.00;;;;;;;16.23;71.91;94115.69;5131852;27;20116;-71
2022/10/07 08:33:33;;;;;;;4.53;1.80;;;;;;;16.32;69.33;94116.16;5132269;27;20143;-71
2022/10/07 08:36:01;;;;;;;5.00;2.10;;;;;;;16.43;68.63;94111.97;5132073;27;20464;-71
2022/10/07 08:38:30;;;;;;;2.97;1.58;;;;;;;16.30;67.98;94110.41;5131922;27;20068;-71
2022/10/07 08:41:13;;;;;;;4.03;1.85;;;;;;;16.40;67.75;94104.66;5131721;27;20088;-71
2022/10/07 08:43:46;;;;;;;3.85;1.60;;;;;;;16.22;67.24;94105.53;5131865;27;20043;-72
2022/10/07 08:46:15;;;;;;;4.80;1.60;;;;;;;16.41;69.38;94099.25;5131786;27;20453;-71
2022/10/07 08:48:45;;;;;;;2.72;1.52;;;;;;;16.53;67.68;94091.47;5131869;27;20055;-71
2022/10/07 08:51:20;;;;;;;4.82;1.65;;;;;;;16.44;66.53;94090.25;5131820;27;20047;-71
2022/10/07 08:53:51;;;;;;;5.83;2.00;;;;;;;16.28;65.90;94079.50;5131867;27;20437;-72
2022/10/07 08:56:23;;;;;;;3.75;1.55;;;;;;;16.27;66.45;94097.88;5131653;27;20043;-72
2022/10/07 08:59:08;;;;;;;3.53;1.42;;;;;;;16.54;66.86;94093.03;5131630;27;20129;-72
2022/10/07 09:01:47;;;;;;;3.33;1.63;;;;;;;16.84;66.86;94093.94;5131021;27;20647;-71
2022/10/07 09:04:26;;;;;;;4.32;1.80;;;;;;;16.60;66.30;94096.56;5131455;27;20045;-71
2022/10/07 09:06:59;;;;;;;3.15;1.83;;;;;;;16.49;66.92;94085.16;5131038;27;20494;-71
2022/10/07 09:09:33;;;;;;;3.33;1.45;;;;;;;16.69;67.39;94076.25;5131229;27;20047;-72
2022/10/07 09:12:05;;;;;;;5.03;1.70;;;;;;;16.70;65.07;94075.22;5094185;28;20306;-72
2022/10/07 09:14:38;;;;;;;3.20;1.42;;;;;;;16.59;65.79;94082.00;5091349;28;20539;-72
2022/10/07 09:17:14;;;;;;;4.60;1.80;;;;;;;16.28;66.53;94065.75;5089832;28;20105;-72
2022/10/07 09:19:45;;;;;;;4.35;2.03;;;;;;;16.49;66.63;94071.41;5108158;28;20047;-72
2022/10/07 09:22:20;;;;;;;4.50;1.58;;;;;;;16.43;65.11;94075.69;5095845;28;20625;-73
2022/10/07 09:24:49;;;;;;;4.05;1.90;;;;;;;16.44;64.12;94069.50;5089173;28;20418;-72
2022/10/07 09:27:21;;;;;;;6.60;1.92;;;;;;;16.55;64.74;94070.50;5102944;28;20446;-72
2022/10/07 09:29:50;;;;;;;4.70;1.50;;;;;;;16.45;63.84;94052.13;5093950;27;20054;-72
2022/10/07 09:32:19;;;;;;;3.00;1.60;;;;;;;16.68;63.68;94046.91;5132117;27;20039;-72
2022/10/07 09:34:46;;;;;;;6.03;1.45;;;;;;;16.98;63.45;94063.38;5130802;27;20050;-73
2022/10/07 09:37:20;;;;;;;9.95;2.08;;;;;;;16.61;62.97;94055.84;5130881;27;20047;-72
2022/10/07 09:39:49;;;;;;;3.75;1.27;;;;;;;16.61;63.71;94061.81;5117500;27;20405;-72
2022/10/07 09:42:31;;;;;;;3.47;1.30;;;;;;;16.49;62.58;94042.88;5129319;27;20053;-72
2022/10/07 09:45:01;;;;;;;5.25;2.60;;;;;;;16.78;63.33;94053.34;5128938;27;20495;-72
2022/10/07 09:47:32;;;;;;;4.05;1.65;;;;;;;16.96;64.82;94052.44;5121285;27;20043;-72
2022/10/07 09:49:59;;;;;;;4.55;2.42;;;;;;;16.91;62.58;94032.38;5130803;27;20089;-72
2022/10/07 09:52:28;;;;;;;4.88;1.90;;;;;;;17.06;64.93;94044.88;5130473;27;20123;-72
2022/10/07 09:54:56;;;;;;;3.70;1.55;;;;;;;17.06;62.90;94050.06;5130625;27;20445;-73
2022/10/07 09:57:32;;;;;;;3.20;1.58;;;;;;;17.02;65.16;94042.94;5130229;27;20445;-72
2022/10/07 10:00:22;;;;;;;5.80;1.70;;;;;;;17.09;63.96;94033.25;5126556;27;20075;-72
2022/10/07 10:02:51;;;;;;;4.38;1.58;;;;;;;17.15;63.94;94041.91;5102002;27;20111;-72
2022/10/07 10:05:29;;;;;;;4.28;2.10;;;;;;;17.00;64.41;94038.00;5124633;27;20066;-72
2022/10/07 10:07:59;;;;;;;9.43;3.05;;;;;;;17.00;64.73;94035.41;5102097;27;20054;-72
2022/10/07 10:10:28;;;;;;;3.70;1.83;;;;;;;17.12;63.05;94026.81;5130373;27;20533;-72
2022/10/07 10:12:58;;;;;;;3.10;1.60;;;;;;;16.88;63.42;94029.41;5129889;27;20042;-72
2022/10/07 10:15:29;;;;;;;5.57;2.00;;;;;;;17.11;63.91;94036.41;5125559;27;20039;-72
2022/10/07 10:17:57;;;;;;;2.95;1.75;;;;;;;17.09;65.12;94000.28;5105345;28;20055;-72
2022/10/07 10:20:34;;;;;;;7.57;2.85;;;;;;;17.15;64.80;94024.53;5115446;27;20054;-71
2022/10/07 10:23:06;;;;;;;3.45;2.00;;;;;;;17.02;65.28;94017.78;5103900;27;20076;-72
2022/10/07 10:28:43;;;;;;;5.50;2.30;;;;;;;16.92;64.90;94025.34;5123131;28;20050;-72
2022/10/07 10:31:25;;;;;;;5.30;2.50;;;;;;;16.99;64.58;94022.63;5131547;27;20047;-72
2022/10/07 10:34:00;;;;;;;4.18;2.60;;;;;;;17.18;64.37;94011.09;5131554;27;20096;-72
2022/10/07 10:36:30;;;;;;;5.05;1.52;;;;;;;17.06;64.06;94011.13;5105041;28;20130;-72
2022/10/07 10:39:02;;;;;;;3.80;2.08;;;;;;;17.28;63.88;94018.31;5114489;27;20040;-72
2022/10/07 10:41:34;;;;;;;3.67;1.83;;;;;;;17.33;62.11;94002.81;5111631;28;20052;-72
2022/10/07 10:44:31;;;;;;;4.60;1.70;;;;;;;17.34;62.45;94003.59;5124485;27;20047;-71
2022/10/07 10:47:03;;;;;;;3.05;1.75;;;;;;;17.21;62.88;94002.84;5128486;27;20388;-72
2022/10/07 10:49:37;;;;;;;4.72;1.80;;;;;;;17.36;62.44;94002.34;5136569;27;20051;-72
2022/10/07 10:52:31;;;;;;;6.45;2.20;;;;;;;17.37;62.54;93992.75;5136237;27;20050;-72
2022/10/07 10:55:13;;;;;;;4.00;1.67;;;;;;;17.13;64.43;93982.44;5136627;27;20096;-72
2022/10/07 10:57:50;;;;;;;5.35;1.85;;;;;;;17.04;62.89;93983.84;5136300;27;20043;-72
2022/10/07 11:00:20;;;;;;;2.85;1.40;;;;;;;17.23;60.69;93982.63;5136651;27;20100;-72
2022/10/07 11:03:05;;;;;;;4.85;1.55;;;;;;;17.11;59.38;93975.94;5136373;27;20080;-72
2022/10/07 11:05:35;;;;;;;4.55;1.58;;;;;;;17.15;58.87;93959.66;5136544;27;20088;-72
2022/10/07 11:08:10;;;;;;;6.82;3.67;;;;;;;17.21;58.60;93968.31;5136282;27;20137;-72
2022/10/07 11:10:41;;;;;;;12.35;4.45;;;;;;;17.27;56.36;93964.78;5136419;27;20077;-72
2022/10/07 11:13:22;;;;;;;10.07;2.60;;;;;;;17.14;56.72;93967.66;5136484;27;20436;-72
2022/10/07 11:15:56;;;;;;;6.65;2.08;;;;;;;17.46;58.62;93954.97;5136359;27;20039;-72
2022/10/07 11:18:30;;;;;;;6.72;3.40;;;;;;;17.29;59.79;93952.38;5136431;27;20130;-72
2022/10/07 11:20:59;;;;;;;4.72;2.35;;;;;;;17.50;58.07;93940.50;5122244;27;20043;-72
2022/10/07 11:23:41;;;;;;;2.90;1.50;;;;;;;17.43;58.75;93952.88;5136436;27;20088;-72
2022/10/07 11:26:17;;;;;;;3.45;1.70;;;;;;;17.42;60.14;93937.50;5136011;27;20054;-72
2022/10/07 11:28:46;;;;;;;5.45;2.33;;;;;;;17.36;60.31;93940.00;5136378;27;20051;-71
2022/10/07 11:31:24;;;;;;;4.88;2.22;;;;;;;17.43;60.46;93908.72;5136037;27;20043;-72
2022/10/07 11:33:59;;;;;;;5.60;2.75;;;;;;;17.68;61.42;93925.72;5136068;27;20039;-71
2022/10/07 11:36:38;;;;;;;4.20;2.00;;;;;;;17.33;59.98;93917.13;5136331;27;20167;-71
2022/10/07 11:39:05;;;;;;;5.03;1.70;;;;;;;17.28;61.46;93924.84;5101343;27;20043;-72
2022/10/07 11:41:35;;;;;;;3.38;2.00;;;;;;;17.57;61.43;93922.19;5134547;27;20088;-72
2022/10/07 11:44:07;;;;;;;3.67;1.85;;;;;;;17.52;60.89;93919.50;5133133;27;20050;-72
2022/10/07 11:46:39;;;;;;;2.83;1.55;;;;;;;17.52;60.53;93922.09;5132625;27;20051;-72
2022/10/07 11:49:12;;;;;;;4.82;1.70;;;;;;;17.82;60.99;93923.59;5132638;27;20058;-72